createdAt,value
2019-03-24T00:01:41.353Z,39.65
2019-03-24T00:04:35.904Z,50.67
2019-03-24T00:07:31.252Z,53.43
2019-03-24T00:10:25.889Z,126.92
2019-03-24T00:13:20.876Z,35.13
2019-03-24T00:16:16.079Z,38.57
2019-03-24T00:19:12.116Z,35.95
2019-03-24T00:22:07.907Z,41.92
2019-03-24T00:25:03.121Z,38.42
2019-03-24T00:27:58.124Z,44.63
2019-03-24T00:30:53.338Z,45.25
2019-03-24T00:33:48.347Z,37.08
2019-03-24T00:36:43.581Z,33.20
2019-03-24T00:39:38.857Z,38.10
2019-03-24T00:42:33.953Z,39.18
2019-03-24T00:45:36.472Z,35.08
2019-03-24T00:48:25.326Z,39.23
2019-03-24T00:51:20.817Z,29.80
2019-03-24T00:54:16.159Z,33.35
2019-03-24T00:57:11.414Z,37.75
2019-03-24T01:00:07.499Z,33.33
2019-03-24T01:03:02.858Z,35.60
2019-03-24T01:05:58.076Z,45.12
2019-03-24T01:08:55.063Z,43.30
2019-03-24T01:11:50.734Z,39.60
2019-03-24T01:14:46.363Z,43.52
2019-03-24T01:17:41.458Z,31.75
2019-03-24T01:20:36.665Z,36.35
2019-03-24T01:23:32.425Z,39.98
2019-03-24T01:26:27.793Z,51.25
2019-03-24T01:29:23.402Z,37.85
2019-03-24T01:32:19.128Z,34.03
2019-03-24T01:35:15.913Z,46.20
2019-03-24T01:38:11.822Z,48.80
2019-03-24T01:41:08.207Z,37.60
2019-03-24T01:44:04.815Z,37.35
2019-03-24T01:46:59.936Z,45.83
2019-03-24T01:49:55.394Z,46.00
2019-03-24T01:52:52.691Z,41.28
2019-03-24T01:55:48.202Z,44.05
2019-03-24T01:58:43.580Z,40.28
2019-03-24T02:01:38.938Z,44.20
2019-03-24T02:04:34.090Z,39.75
2019-03-24T02:07:29.667Z,36.77
2019-03-24T02:10:25.508Z,35.28
2019-03-24T02:13:21.602Z,47.80
2019-03-24T02:16:17.205Z,29.90
2019-03-24T02:19:13.183Z,52.58
2019-03-24T02:22:09.387Z,37.40
2019-03-24T02:25:06.243Z,33.50
2019-03-24T02:28:01.522Z,37.50
2019-03-24T02:30:57.093Z,40.17
2019-03-24T02:33:53.498Z,38.48
2019-03-24T02:36:49.137Z,34.90
2019-03-24T02:39:45.482Z,33.60
2019-03-24T02:42:41.448Z,36.25
2019-03-24T02:45:36.562Z,33.13
2019-03-24T02:48:32.264Z,26.25
2019-03-24T02:51:28.540Z,29.67
2019-03-24T02:54:23.843Z,39.73
2019-03-24T02:57:18.952Z,35.08
2019-03-24T03:00:15.054Z,31.12
2019-03-24T03:03:10.312Z,36.00
2019-03-24T03:06:05.503Z,34.63
2019-03-24T03:09:01.075Z,34.33
2019-03-24T03:11:58.210Z,37.00
2019-03-24T03:14:53.413Z,39.08
2019-03-24T03:17:48.619Z,35.52
2019-03-24T03:20:44.111Z,34.73
2019-03-24T03:23:39.099Z,35.15
2019-03-24T03:26:35.175Z,33.67
2019-03-24T03:29:31.010Z,29.42
2019-03-24T03:32:26.530Z,35.40
2019-03-24T03:35:21.735Z,33.00
2019-03-24T03:38:17.434Z,33.65
2019-03-24T03:41:15.180Z,37.83
2019-03-24T03:44:10.568Z,30.72
2019-03-24T03:47:06.148Z,30.32
2019-03-24T03:50:01.353Z,34.65
2019-03-24T03:52:56.472Z,29.95
2019-03-24T03:55:51.750Z,29.67
2019-03-24T03:58:46.962Z,29.00
2019-03-24T04:01:41.953Z,23.15
2019-03-24T04:04:36.969Z,28.23
2019-03-24T04:07:32.171Z,30.75
2019-03-24T04:10:27.519Z,31.30
2019-03-24T04:13:22.897Z,24.32
2019-03-24T04:16:19.467Z,25.23
2019-03-24T04:19:14.826Z,19.10
2019-03-24T04:22:12.075Z,24.82
2019-03-24T04:25:07.514Z,24.27
2019-03-24T04:28:03.221Z,25.10
2019-03-24T04:31:00.295Z,24.70
2019-03-24T04:33:55.452Z,30.45
2019-03-24T04:36:51.290Z,31.20
2019-03-24T04:39:46.835Z,27.73
2019-03-24T04:42:43.465Z,21.93
2019-03-24T04:45:38.920Z,20.12
2019-03-24T04:48:34.012Z,21.82
2019-03-24T04:51:32.557Z,20.23
2019-03-24T04:54:28.179Z,24.92
2019-03-24T04:57:24.564Z,22.02
2019-03-24T05:00:21.976Z,22.40
2019-03-24T05:03:18.480Z,24.72
2019-03-24T05:06:14.433Z,21.15
2019-03-24T05:09:09.809Z,23.27
2019-03-24T05:12:06.109Z,19.10
2019-03-24T05:15:01.715Z,25.37
2019-03-24T05:17:58.551Z,26.33
2019-03-24T05:20:54.491Z,24.37
2019-03-24T05:23:49.779Z,26.50
2019-03-24T05:26:45.374Z,24.35
2019-03-24T05:29:40.823Z,27.02
2019-03-24T05:32:36.320Z,21.00
2019-03-24T05:35:31.605Z,20.05
2019-03-24T05:38:26.696Z,18.23
2019-03-24T05:41:22.122Z,20.15
2019-03-24T05:44:17.689Z,23.75
2019-03-24T05:47:13.235Z,20.20
2019-03-24T05:50:08.511Z,18.98
2019-03-24T05:53:05.136Z,21.87
2019-03-24T05:56:01.588Z,17.90
2019-03-24T05:58:56.783Z,21.45
2019-03-24T06:01:51.621Z,19.98
2019-03-24T06:04:47.038Z,16.82
2019-03-24T06:07:42.627Z,20.40
2019-03-24T06:10:37.834Z,18.25
2019-03-24T06:13:33.862Z,18.67
2019-03-24T06:16:29.757Z,24.43
2019-03-24T06:19:26.151Z,16.62
2019-03-24T06:22:21.530Z,20.48
2019-03-24T06:25:16.316Z,19.20
2019-03-24T06:28:11.314Z,20.92
2019-03-24T06:31:06.678Z,22.05
2019-03-24T06:34:01.697Z,19.48
2019-03-24T06:36:56.817Z,19.40
2019-03-24T06:39:51.943Z,21.23
2019-03-24T06:42:48.148Z,19.42
2019-03-24T06:45:44.937Z,20.50
2019-03-24T06:48:40.560Z,16.82
2019-03-24T06:51:35.661Z,19.50
2019-03-24T06:54:31.040Z,19.85
2019-03-24T06:57:26.251Z,17.62
2019-03-24T07:00:23.129Z,15.78
2019-03-24T07:03:18.338Z,19.23
2019-03-24T07:06:13.308Z,15.72
2019-03-24T07:09:09.451Z,22.22
2019-03-24T07:12:04.399Z,21.93
2019-03-24T07:14:59.485Z,19.80
2019-03-24T07:17:56.002Z,16.62
2019-03-24T07:20:51.318Z,17.62
2019-03-24T07:23:46.936Z,16.17
2019-03-24T07:26:42.227Z,17.85
2019-03-24T07:29:38.235Z,21.15
2019-03-24T07:32:34.168Z,17.27
2019-03-24T07:35:30.158Z,19.67
2019-03-24T07:38:26.189Z,16.25
2019-03-24T07:41:21.627Z,14.30
2019-03-24T07:44:17.053Z,19.33
2019-03-24T07:47:17.573Z,23.00
2019-03-24T07:50:13.477Z,16.45
2019-03-24T07:53:11.120Z,12.03
2019-03-24T07:56:08.857Z,14.80
2019-03-24T07:59:04.798Z,18.42
2019-03-24T08:02:00.419Z,20.90
2019-03-24T08:04:55.810Z,14.95
2019-03-24T08:07:52.180Z,12.93
2019-03-24T08:10:47.738Z,14.85
2019-03-24T08:13:53.301Z,12.80
2019-03-24T08:16:39.647Z,12.80
2019-03-24T08:19:35.644Z,19.02
2019-03-24T08:22:31.376Z,17.82
2019-03-24T08:25:26.705Z,16.07
2019-03-24T08:28:23.171Z,15.60
2019-03-24T08:31:18.908Z,24.32
2019-03-24T08:34:15.442Z,16.93
2019-03-24T08:37:11.077Z,21.05
2019-03-24T08:40:06.950Z,22.50
2019-03-24T08:43:04.519Z,21.07
2019-03-24T08:46:00.303Z,19.85
2019-03-24T08:48:56.245Z,15.15
2019-03-24T08:51:51.751Z,16.27
2019-03-24T08:54:47.361Z,17.02
2019-03-24T08:57:44.310Z,23.25
2019-03-24T09:00:40.058Z,17.50
2019-03-24T09:03:35.465Z,19.65
2019-03-24T09:06:31.416Z,21.35
2019-03-24T09:09:26.944Z,17.77
2019-03-24T09:12:22.402Z,21.57
2019-03-24T09:15:18.151Z,19.30
2019-03-24T09:18:13.533Z,22.95
2019-03-24T09:21:10.810Z,24.27
2019-03-24T09:24:06.386Z,14.45
2019-03-24T09:27:02.596Z,15.65
2019-03-24T09:29:58.208Z,22.17
2019-03-24T09:32:54.542Z,22.65
2019-03-24T09:35:51.056Z,19.32
2019-03-24T09:38:46.599Z,14.45
2019-03-24T09:41:41.971Z,23.07
2019-03-24T09:44:37.130Z,23.62
2019-03-24T09:47:32.287Z,14.80
2019-03-24T09:50:27.711Z,26.33
2019-03-24T09:53:24.987Z,20.23
2019-03-24T09:56:19.969Z,16.95
2019-03-24T09:59:14.920Z,17.48
2019-03-24T10:02:12.071Z,17.98
2019-03-24T10:05:07.952Z,23.70
2019-03-24T10:08:03.650Z,22.20
2019-03-24T10:10:58.958Z,21.70
2019-03-24T10:13:54.563Z,17.77
2019-03-24T10:16:50.093Z,21.48
2019-03-24T10:19:47.316Z,22.75
2019-03-24T10:22:43.967Z,19.67
2019-03-24T10:25:40.650Z,16.40
2019-03-24T10:28:36.780Z,18.37
2019-03-24T10:31:32.116Z,20.72
2019-03-24T10:34:27.257Z,19.20
2019-03-24T10:37:22.985Z,20.77
2019-03-24T10:40:28.258Z,16.62
2019-03-24T10:43:16.733Z,26.87
2019-03-24T10:46:11.894Z,16.40
2019-03-24T10:49:07.536Z,19.37
2019-03-24T10:52:02.616Z,16.90
2019-03-24T10:54:58.129Z,15.68
2019-03-24T10:57:53.126Z,17.23
2019-03-24T11:00:49.524Z,18.70
2019-03-24T11:03:45.041Z,17.10
2019-03-24T11:06:41.463Z,14.90
2019-03-24T11:09:37.451Z,20.45
2019-03-24T11:12:32.749Z,18.57
2019-03-24T11:15:28.043Z,24.18
2019-03-24T11:18:23.270Z,15.58
2019-03-24T11:21:18.909Z,19.12
2019-03-24T11:24:14.003Z,20.60
2019-03-24T11:27:09.713Z,13.48
2019-03-24T11:30:05.397Z,22.45
2019-03-24T11:33:01.246Z,15.55
2019-03-24T11:35:56.952Z,16.82
2019-03-24T11:38:52.274Z,17.27
2019-03-24T11:41:48.220Z,14.05
2019-03-24T11:44:44.188Z,14.68
2019-03-24T11:47:40.036Z,20.50
2019-03-24T11:50:35.791Z,19.75
2019-03-24T11:53:30.973Z,21.12
2019-03-24T11:56:27.446Z,14.00
2019-03-24T11:59:23.284Z,21.05
2019-03-24T12:02:19.079Z,23.10
2019-03-24T12:05:15.570Z,17.02
2019-03-24T12:08:11.172Z,16.82
2019-03-24T12:11:08.335Z,12.78
2019-03-24T12:14:04.575Z,20.55
2019-03-24T12:17:00.753Z,14.90
2019-03-24T12:19:57.251Z,13.25
2019-03-24T12:22:52.974Z,20.30
2019-03-24T12:25:49.050Z,22.07
2019-03-24T12:28:44.212Z,16.97
2019-03-24T12:31:41.031Z,18.73
2019-03-24T12:34:37.248Z,11.12
2019-03-24T12:37:33.649Z,13.98
2019-03-24T12:40:29.664Z,15.88
2019-03-24T12:43:25.059Z,19.52
2019-03-24T12:46:20.039Z,13.55
2019-03-24T12:49:15.372Z,12.05
2019-03-24T12:52:10.340Z,15.32
2019-03-24T12:55:05.358Z,13.68
2019-03-24T12:58:01.085Z,19.50
2019-03-24T13:00:56.186Z,16.82
2019-03-24T13:03:51.099Z,17.80
2019-03-24T13:06:46.938Z,14.00
2019-03-24T13:09:42.334Z,17.35
2019-03-24T13:12:37.542Z,13.18
2019-03-24T13:15:32.929Z,13.22
2019-03-24T13:18:28.511Z,15.70
2019-03-24T13:21:23.621Z,18.85
2019-03-24T13:24:19.648Z,18.60
2019-03-24T13:27:16.229Z,12.53
2019-03-24T13:30:12.976Z,14.38
2019-03-24T13:33:08.750Z,17.10
2019-03-24T13:36:13.220Z,14.18
2019-03-24T13:39:09.779Z,12.58
2019-03-24T13:42:05.297Z,11.85
2019-03-24T13:45:00.739Z,20.88
2019-03-24T13:47:55.792Z,12.98
2019-03-24T13:50:52.693Z,14.55
2019-03-24T13:53:47.771Z,15.85
2019-03-24T13:56:43.153Z,14.47
2019-03-24T13:59:38.577Z,16.27
2019-03-24T14:02:35.376Z,19.62
2019-03-24T14:05:31.859Z,16.35
2019-03-24T14:08:27.089Z,14.93
2019-03-24T14:11:24.225Z,16.05
2019-03-24T14:14:20.263Z,19.00
2019-03-24T14:17:15.325Z,19.37
2019-03-24T14:20:12.761Z,17.77
2019-03-24T14:23:08.100Z,14.47
2019-03-24T14:26:03.450Z,15.25
2019-03-24T14:28:59.718Z,20.17
2019-03-24T14:31:54.771Z,18.50
2019-03-24T14:34:51.511Z,18.95
2019-03-24T14:37:48.412Z,16.65
2019-03-24T14:40:44.862Z,15.83
2019-03-24T14:43:41.885Z,18.48
2019-03-24T14:46:37.740Z,19.55
2019-03-24T14:49:34.300Z,19.27
2019-03-24T14:52:30.118Z,19.07
2019-03-24T14:55:25.745Z,16.55
2019-03-24T14:58:22.159Z,24.25
2019-03-24T15:01:17.214Z,22.48
2019-03-24T15:04:12.792Z,17.37
2019-03-24T15:07:07.742Z,22.98
2019-03-24T15:10:03.197Z,17.17
2019-03-24T15:12:59.072Z,15.63
2019-03-24T15:15:54.562Z,28.12
2019-03-24T15:18:50.738Z,19.20
2019-03-24T15:21:48.186Z,20.15
2019-03-24T15:24:43.937Z,20.68
2019-03-24T15:27:39.984Z,20.40
2019-03-24T15:30:36.847Z,19.12
2019-03-24T15:33:32.325Z,22.00
2019-03-24T15:36:28.726Z,22.52
2019-03-24T15:39:24.571Z,23.40
2019-03-24T15:42:20.137Z,24.90
2019-03-24T15:45:16.108Z,21.00
2019-03-24T15:48:12.700Z,19.70
2019-03-24T15:51:16.329Z,22.05
2019-03-24T15:54:03.941Z,20.27
2019-03-24T15:56:59.531Z,21.05
2019-03-24T15:59:55.238Z,23.67
2019-03-24T16:02:50.548Z,23.20
2019-03-24T16:05:46.255Z,19.98
2019-03-24T16:08:41.452Z,19.92
2019-03-24T16:11:36.636Z,18.98
2019-03-24T16:14:31.524Z,20.48
2019-03-24T16:17:26.874Z,23.95
2019-03-24T16:20:22.485Z,19.12
2019-03-24T16:23:18.743Z,20.00
2019-03-24T16:26:15.038Z,19.48
2019-03-24T16:29:10.479Z,22.35
2019-03-24T16:32:06.079Z,16.57
2019-03-24T16:35:01.277Z,17.57
2019-03-24T16:37:56.832Z,23.07
2019-03-24T16:40:52.276Z,18.05
2019-03-24T16:43:47.897Z,18.67
2019-03-24T16:46:43.561Z,21.70
2019-03-24T16:49:39.033Z,35.60
2019-03-24T16:52:35.144Z,39.15
2019-03-24T16:55:32.894Z,25.52
2019-03-24T16:58:28.382Z,20.55
2019-03-24T17:01:23.906Z,28.00
2019-03-24T17:04:20.856Z,21.10
2019-03-24T17:07:17.007Z,27.17
2019-03-24T17:10:12.658Z,19.07
2019-03-24T17:13:08.187Z,18.07
2019-03-24T17:16:03.455Z,24.67
2019-03-24T17:18:59.260Z,15.88
2019-03-24T17:21:54.739Z,19.35
2019-03-24T17:24:52.519Z,18.30
2019-03-24T17:27:47.758Z,20.32
2019-03-24T17:30:43.360Z,16.77
2019-03-24T17:33:38.787Z,18.30
2019-03-24T17:36:35.969Z,20.30
2019-03-24T17:39:31.564Z,18.53
2019-03-24T17:42:27.233Z,15.38
2019-03-24T17:45:22.718Z,16.97
2019-03-24T17:48:19.897Z,19.32
2019-03-24T17:51:15.459Z,18.13
2019-03-24T17:54:11.197Z,19.37
2019-03-24T17:57:06.954Z,18.27
2019-03-24T18:00:02.631Z,18.48
2019-03-24T18:02:59.390Z,19.55
2019-03-24T18:05:56.598Z,18.17
2019-03-24T18:08:52.919Z,19.47
2019-03-24T18:11:48.378Z,19.20
2019-03-24T18:14:43.838Z,18.33
2019-03-24T18:17:39.995Z,15.43
2019-03-24T18:20:37.574Z,16.73
2019-03-24T18:23:34.561Z,19.30
2019-03-24T18:26:30.062Z,22.37
2019-03-24T18:29:25.924Z,14.87
2019-03-24T18:32:23.066Z,15.37
2019-03-24T18:35:18.363Z,15.57
2019-03-24T18:38:13.608Z,16.30
2019-03-24T18:41:08.804Z,15.70
2019-03-24T18:44:05.820Z,17.57
2019-03-24T18:47:02.381Z,19.47
2019-03-24T18:49:58.467Z,17.37
2019-03-24T18:52:54.312Z,15.77
2019-03-24T18:55:49.657Z,19.60
2019-03-24T18:58:44.707Z,23.00
2019-03-24T19:01:40.040Z,23.07
2019-03-24T19:04:35.257Z,17.40
2019-03-24T19:07:31.562Z,13.78
2019-03-24T19:10:26.388Z,20.90
2019-03-24T19:13:21.620Z,17.00
2019-03-24T19:16:16.898Z,22.27
2019-03-24T19:19:12.207Z,20.20
2019-03-24T19:22:07.720Z,20.90
2019-03-24T19:25:02.972Z,18.80
2019-03-24T19:27:58.488Z,17.23
2019-03-24T19:30:55.678Z,17.33
2019-03-24T19:33:51.191Z,17.27
2019-03-24T19:36:47.107Z,18.10
2019-03-24T19:39:42.371Z,23.90
2019-03-24T19:42:37.395Z,18.23
2019-03-24T19:45:32.455Z,18.93
2019-03-24T19:48:27.796Z,15.37
2019-03-24T19:51:24.310Z,18.83
2019-03-24T19:54:19.400Z,18.13
2019-03-24T19:57:15.684Z,19.70
2019-03-24T20:00:11.817Z,16.47
2019-03-24T20:03:08.397Z,14.40
2019-03-24T20:06:03.461Z,18.77
2019-03-24T20:08:58.804Z,16.10
2019-03-24T20:11:54.438Z,18.87
2019-03-24T20:14:50.108Z,17.47
2019-03-24T20:17:44.991Z,14.73
2019-03-24T20:20:42.054Z,14.63
2019-03-24T20:23:37.645Z,14.87
2019-03-24T20:26:33.118Z,16.40
2019-03-24T20:29:29.715Z,18.03
2019-03-24T20:32:24.993Z,19.50
2019-03-24T20:35:21.128Z,14.70
2019-03-24T20:38:16.195Z,17.07
2019-03-24T20:41:12.048Z,14.10
2019-03-24T20:44:07.267Z,19.93
2019-03-24T20:47:02.416Z,17.60
2019-03-24T20:49:58.266Z,14.20
2019-03-24T20:53:03.632Z,18.30
2019-03-24T20:55:51.160Z,17.23
2019-03-24T20:58:46.717Z,18.10
2019-03-24T21:01:42.080Z,19.87
2019-03-24T21:04:37.319Z,17.23
2019-03-24T21:07:32.874Z,21.23
2019-03-24T21:10:28.199Z,18.47
2019-03-24T21:13:23.271Z,22.70
2019-03-24T21:16:18.367Z,24.43
2019-03-24T21:19:13.769Z,26.23
2019-03-24T21:22:09.011Z,23.37
2019-03-24T21:25:04.133Z,23.67
2019-03-24T21:27:59.514Z,25.10
2019-03-24T21:30:54.327Z,23.50
2019-03-24T21:33:49.491Z,31.50
2019-03-24T21:36:44.531Z,23.37
2019-03-24T21:39:39.463Z,33.43
2019-03-24T21:42:34.922Z,27.10
2019-03-24T21:45:30.294Z,34.20
2019-03-24T21:48:25.313Z,33.57
2019-03-24T21:51:20.875Z,33.30
2019-03-24T21:54:15.775Z,36.60
2019-03-24T21:57:11.125Z,35.10
2019-03-24T22:00:06.910Z,35.63
2019-03-24T22:03:03.794Z,39.00
2019-03-24T22:05:58.810Z,41.70
2019-03-24T22:08:53.933Z,43.10
2019-03-24T22:11:48.784Z,45.03
2019-03-24T22:14:43.988Z,39.10
2019-03-24T22:17:39.420Z,43.40
2019-03-24T22:20:34.848Z,42.35
2019-03-24T22:23:30.101Z,38.97
2019-03-24T22:26:25.087Z,43.23
2019-03-24T22:29:20.254Z,38.07
2019-03-24T22:32:15.504Z,45.17
2019-03-24T22:35:10.750Z,48.80
2019-03-24T22:38:05.714Z,51.60
2019-03-24T22:41:00.858Z,54.30
2019-03-24T22:43:56.536Z,43.27
2019-03-24T22:46:51.647Z,51.27
2019-03-24T22:49:46.620Z,52.17
2019-03-24T22:52:41.929Z,49.87
2019-03-24T22:55:37.141Z,44.57
2019-03-24T22:58:32.277Z,44.98
2019-03-24T23:01:27.329Z,56.80
2019-03-24T23:04:21.978Z,54.07
2019-03-24T23:07:17.228Z,56.93
2019-03-24T23:10:12.641Z,51.80
2019-03-24T23:13:08.109Z,66.03
2019-03-24T23:16:04.185Z,61.18
2019-03-24T23:18:59.303Z,54.07
2019-03-24T23:21:54.191Z,52.17
2019-03-24T23:24:49.746Z,52.88
2019-03-24T23:27:45.024Z,60.67
2019-03-24T23:30:39.956Z,59.42
2019-03-24T23:33:34.949Z,58.48
2019-03-24T23:36:30.430Z,56.40
2019-03-24T23:39:25.849Z,55.38
2019-03-24T23:42:21.229Z,62.53
2019-03-24T23:45:16.579Z,58.50
2019-03-24T23:48:11.960Z,69.23
2019-03-24T23:51:07.196Z,59.53
2019-03-24T23:54:02.625Z,86.15
2019-03-24T23:56:58.035Z,65.03
2019-03-24T23:59:53.361Z,70.67
